Time;durP1;ratioP1;P1;durP2;ratioP2;P2;SDS_P1;SDS_P2;PMS_P1;PMS_P2;Temp;Humidity;BMP_temperature;BMP_pressure;BME280_temperature;BME280_humidity;BME280_pressure;Samples;Min_cycle;Max_cycle;Signal;HPM_P1;HPM_P2
2022/06/05 00:00:32;;;;;;;18.92;11.55;;;;;;;;;;5029406;28;20029;-66
2022/06/05 00:03:07;;;;;;;21.65;10.82;;;;;;;;;;5029289;28;20063;-66
2022/06/05 00:05:43;;;;;;;19.33;11.45;;;;;;;;;;5030420;28;20088;-65
2022/06/05 00:08:09;;;;;;;22.25;12.15;;;;;;;;;;5030063;28;20173;-65
2022/06/05 00:10:39;;;;;;;21.60;11.15;;;;;;;;;;5030210;28;20486;-65
2022/06/05 00:13:11;;;;;;;18.02;10.88;;;;;;;;;;5029833;28;20021;-65
2022/06/05 00:15:37;;;;;;;25.48;12.13;;;;;;;;;;5029522;28;20037;-65
2022/06/05 00:18:03;;;;;;;20.55;11.60;;;;;;;;;;5029684;28;20486;-65
2022/06/05 00:20:31;;;;;;;19.80;10.82;;;;;;;;;;5029779;28;20107;-65
2022/06/05 00:22:57;;;;;;;21.85;11.85;;;;;;;;;;5029676;28;20029;-66
2022/06/05 00:25:29;;;;;;;26.92;12.68;;;;;;;;;;5029639;28;20071;-66
2022/06/05 00:28:04;;;;;;;24.38;12.07;;;;;;;;;;5029739;28;20054;-65
2022/06/05 00:30:30;;;;;;;19.05;11.27;;;;;;;;;;5029340;28;20506;-64
2022/06/05 00:32:59;;;;;;;19.48;12.63;;;;;;;;;;5028169;28;20025;-66
2022/06/05 00:35:30;;;;;;;16.67;12.27;;;;;;;;;;5029210;28;20061;-66
2022/06/05 00:38:12;;;;;;;21.63;12.45;;;;;;;;;;5029537;28;20030;-65
2022/06/05 00:40:47;;;;;;;20.00;12.18;;;;;;;;;;5029592;28;20033;-66
2022/06/05 00:43:15;;;;;;;20.45;11.48;;;;;;;;;;5029142;28;20120;-66
2022/06/05 00:45:42;;;;;;;20.33;11.65;;;;;;;;;;5029375;28;20084;-65
2022/06/05 00:48:08;;;;;;;17.58;12.70;;;;;;;;;;5029967;28;20030;-67
2022/06/05 00:50:35;;;;;;;20.02;12.40;;;;;;;;;;5029812;28;20120;-66
2022/06/05 00:53:02;;;;;;;23.30;12.32;;;;;;;;;;5029687;28;20032;-65
2022/06/05 00:55:30;;;;;;;19.45;12.10;;;;;;;;;;5030076;28;20040;-65
2022/06/05 00:57:56;;;;;;;21.05;12.35;;;;;;;;;;5030420;28;20025;-65
2022/06/05 01:00:31;;;;;;;21.50;12.32;;;;;;;;;;5030556;28;20091;-66
2022/06/05 01:02:58;;;;;;;21.58;12.45;;;;;;;;;;5029693;28;20029;-66
2022/06/05 01:05:25;;;;;;;19.85;12.70;;;;;;;;;;5029759;28;20044;-65
2022/06/05 01:07:52;;;;;;;21.63;12.07;;;;;;;;;;5030361;28;20068;-65
2022/06/05 01:10:18;;;;;;;24.35;12.80;;;;;;;;;;5030095;28;20026;-66
2022/06/05 01:13:20;;;;;;;24.48;12.60;;;;;;;;;;5029730;28;20494;-66
2022/06/05 01:16:05;;;;;;;28.05;14.82;;;;;;;;;;4988242;28;20045;-66
2022/06/05 01:18:38;;;;;;;19.45;12.52;;;;;;;;;;5040650;28;20034;-66
2022/06/05 01:21:10;;;;;;;28.67;12.27;;;;;;;;;;5030253;28;20116;-66
2022/06/05 01:23:45;;;;;;;18.08;12.48;;;;;;;;;;5029260;28;20018;-69
2022/06/05 01:26:14;;;;;;;17.73;12.07;;;;;;;;;;5029233;28;20115;-66
2022/06/05 01:28:44;;;;;;;17.75;12.88;;;;;;;;;;5029543;28;20033;-64
2022/06/05 01:31:39;;;;;;;18.88;12.45;;;;;;;;;;5029205;28;20128;-65
2022/06/05 01:34:08;;;;;;;22.48;13.75;;;;;;;;;;5019303;28;20033;-65
2022/06/05 01:36:46;;;;;;;16.15;11.48;;;;;;;;;;5029155;28;20120;-65
2022/06/05 01:39:30;;;;;;;20.20;12.05;;;;;;;;;;5029581;28;20025;-65
2022/06/05 01:41:59;;;;;;;18.90;11.70;;;;;;;;;;5029242;28;20479;-66
2022/06/05 01:44:37;;;;;;;24.23;11.93;;;;;;;;;;5027222;28;20045;-65
2022/06/05 01:47:06;;;;;;;18.48;11.63;;;;;;;;;;5029359;28;20025;-65
2022/06/05 01:49:46;;;;;;;18.85;11.55;;;;;;;;;;5029332;28;20025;-65
2022/06/05 01:52:12;;;;;;;21.00;11.43;;;;;;;;;;5029067;28;20061;-65
2022/06/05 01:54:47;;;;;;;18.60;11.27;;;;;;;;;;5027558;28;20029;-66
2022/06/05 01:57:14;;;;;;;15.60;10.95;;;;;;;;;;5029173;28;20033;-66
2022/06/05 01:59:43;;;;;;;17.33;11.00;;;;;;;;;;5028748;28;20112;-66
2022/06/05 02:02:11;;;;;;;17.92;11.70;;;;;;;;;;5030781;28;20030;-65
2022/06/05 02:04:46;;;;;;;18.90;12.20;;;;;;;;;;5032678;28;20033;-66
2022/06/05 02:07:16;;;;;;;22.25;12.00;;;;;;;;;;5033082;28;20052;-66
2022/06/05 02:10:04;;;;;;;19.33;11.00;;;;;;;;;;5032828;28;20021;-66
2022/06/05 02:12:30;;;;;;;18.15;11.68;;;;;;;;;;5033398;28;20030;-66
2022/06/05 02:14:57;;;;;;;15.70;11.25;;;;;;;;;;5032984;28;20041;-66
2022/06/05 02:17:23;;;;;;;20.38;11.68;;;;;;;;;;5033031;28;20045;-66
2022/06/05 02:19:50;;;;;;;19.80;12.05;;;;;;;;;;5032982;28;20028;-65
2022/06/05 02:22:19;;;;;;;18.48;11.30;;;;;;;;;;5033259;28;20029;-66
2022/06/05 02:24:45;;;;;;;20.35;11.80;;;;;;;;;;5032711;28;20052;-65
2022/06/05 02:27:11;;;;;;;20.92;11.60;;;;;;;;;;5033044;28;20083;-66
2022/06/05 02:29:38;;;;;;;19.67;12.27;;;;;;;;;;5032634;28;20028;-66
2022/06/05 02:32:13;;;;;;;18.80;11.65;;;;;;;;;;5033082;28;20025;-65
2022/06/05 02:34:50;;;;;;;18.52;12.63;;;;;;;;;;5032563;28;20140;-65
2022/06/05 02:37:22;;;;;;;23.83;11.90;;;;;;;;;;5032109;28;20033;-65
2022/06/05 02:40:07;;;;;;;18.67;11.88;;;;;;;;;;5031990;28;20055;-65
2022/06/05 02:42:35;;;;;;;21.55;12.05;;;;;;;;;;5032650;28;20025;-65
2022/06/05 02:45:20;;;;;;;18.63;12.07;;;;;;;;;;5032060;28;20049;-65
2022/06/05 02:47:54;;;;;;;25.35;13.90;;;;;;;;;;5032039;28;20083;-65
2022/06/05 02:50:26;;;;;;;18.92;13.07;;;;;;;;;;5032128;28;20041;-64
2022/06/05 02:52:53;;;;;;;18.05;12.48;;;;;;;;;;5032557;28;20362;-65
2022/06/05 02:55:21;;;;;;;20.05;12.32;;;;;;;;;;5031651;28;20463;-65
2022/06/05 02:57:47;;;;;;;22.05;12.77;;;;;;;;;;5031691;28;20483;-66
2022/06/05 03:00:15;;;;;;;21.88;13.02;;;;;;;;;;5032169;28;20234;-65
2022/06/05 03:05:25;;;;;;;19.20;13.10;;;;;;;;;;5031827;28;20056;-65
2022/06/05 03:07:52;;;;;;;18.90;13.25;;;;;;;;;;5031949;28;20120;-65
2022/06/05 03:10:18;;;;;;;20.33;13.32;;;;;;;;;;5047028;28;20064;-67
2022/06/05 03:12:45;;;;;;;25.00;13.25;;;;;;;;;;5031615;28;20026;-65
2022/06/05 03:15:11;;;;;;;22.40;13.57;;;;;;;;;;5031541;28;20033;-65
2022/06/05 03:17:37;;;;;;;22.27;13.63;;;;;;;;;;5031177;28;20026;-65
2022/06/05 03:20:04;;;;;;;22.05;13.80;;;;;;;;;;5031955;28;20044;-65
2022/06/05 03:22:30;;;;;;;26.65;13.90;;;;;;;;;;5032092;28;20033;-65
2022/06/05 03:24:56;;;;;;;24.25;14.40;;;;;;;;;;5031802;28;20040;-65
2022/06/05 03:27:23;;;;;;;25.92;14.23;;;;;;;;;;5031608;28;20553;-65
2022/06/05 03:29:49;;;;;;;25.17;15.20;;;;;;;;;;5030898;28;20121;-65
2022/06/05 03:32:15;;;;;;;22.45;13.82;;;;;;;;;;5032611;28;20447;-65
2022/06/05 03:34:41;;;;;;;21.42;14.35;;;;;;;;;;5031360;28;20027;-65
2022/06/05 03:37:07;;;;;;;25.92;14.10;;;;;;;;;;5032292;28;20116;-65
2022/06/05 03:39:33;;;;;;;25.52;15.88;;;;;;;;;;5031955;28;20112;-66
2022/06/05 03:41:59;;;;;;;29.33;17.92;;;;;;;;;;5030333;28;20469;-64
2022/06/05 03:44:26;;;;;;;25.00;14.88;;;;;;;;;;5030591;28;20046;-66
2022/06/05 03:46:52;;;;;;;25.48;15.35;;;;;;;;;;5031372;28;20112;-65
2022/06/05 03:49:18;;;;;;;25.30;16.02;;;;;;;;;;5031283;28;20039;-66
2022/06/05 03:51:45;;;;;;;30.10;16.98;;;;;;;;;;5030887;28;20029;-66
2022/06/05 03:54:11;;;;;;;26.98;15.85;;;;;;;;;;5030448;28;20041;-64
2022/06/05 03:56:37;;;;;;;26.55;15.70;;;;;;;;;;5030693;28;20479;-67
2022/06/05 03:59:03;;;;;;;25.23;15.60;;;;;;;;;;5030972;28;20025;-66
2022/06/05 04:01:29;;;;;;;24.15;15.63;;;;;;;;;;5030695;28;20029;-65
2022/06/05 04:03:56;;;;;;;27.58;15.20;;;;;;;;;;5030469;28;20040;-64
2022/06/05 04:06:29;;;;;;;26.70;15.95;;;;;;;;;;5030798;28;20057;-65
2022/06/05 04:09:00;;;;;;;30.70;17.05;;;;;;;;;;5030451;28;20033;-65
2022/06/05 04:11:27;;;;;;;26.20;15.80;;;;;;;;;;5030818;28;20112;-65
2022/06/05 04:13:53;;;;;;;25.73;15.73;;;;;;;;;;5030273;28;20049;-65
2022/06/05 04:16:21;;;;;;;26.17;16.25;;;;;;;;;;5030133;28;20042;-65
2022/06/05 04:18:49;;;;;;;30.60;16.00;;;;;;;;;;5030673;28;20149;-66
2022/06/05 04:21:17;;;;;;;25.00;16.23;;;;;;;;;;5030516;28;20028;-64
2022/06/05 04:23:43;;;;;;;26.45;15.98;;;;;;;;;;5030290;28;20028;-65
2022/06/05 04:26:10;;;;;;;26.13;15.68;;;;;;;;;;5029768;28;20033;-66
2022/06/05 04:28:37;;;;;;;26.85;16.67;;;;;;;;;;5030297;28;20040;-65
2022/06/05 04:31:03;;;;;;;27.55;17.88;;;;;;;;;;5030489;28;20132;-65
2022/06/05 04:33:31;;;;;;;23.67;16.02;;;;;;;;;;5030368;28;20036;-65
2022/06/05 04:35:57;;;;;;;28.98;16.60;;;;;;;;;;5030064;28;20034;-64
2022/06/05 04:38:23;;;;;;;25.05;16.45;;;;;;;;;;5030612;28;20090;-65
2022/06/05 04:40:49;;;;;;;39.38;17.08;;;;;;;;;;5030278;28;20483;-65
2022/06/05 04:43:16;;;;;;;28.25;16.55;;;;;;;;;;5030170;28;20033;-65
2022/06/05 04:45:44;;;;;;;27.20;17.33;;;;;;;;;;5029918;28;20085;-65
2022/06/05 04:48:10;;;;;;;36.72;17.15;;;;;;;;;;5030399;28;20128;-65
2022/06/05 04:50:40;;;;;;;27.55;16.00;;;;;;;;;;5029750;28;20144;-65
2022/06/05 04:53:06;;;;;;;26.23;16.73;;;;;;;;;;5030656;28;20025;-65
2022/06/05 04:55:32;;;;;;;27.13;16.85;;;;;;;;;;5030131;28;20120;-65
2022/06/05 04:57:58;;;;;;;30.55;17.38;;;;;;;;;;5030297;28;20048;-65
2022/06/05 05:00:24;;;;;;;29.45;16.42;;;;;;;;;;5029979;28;20439;-66
2022/06/05 05:02:50;;;;;;;34.35;18.63;;;;;;;;;;5030429;28;20099;-66
2022/06/05 05:05:16;;;;;;;21.48;15.60;;;;;;;;;;5045002;28;20037;-65
2022/06/05 05:07:42;;;;;;;25.80;17.60;;;;;;;;;;5029588;28;20034;-64
2022/06/05 05:10:09;;;;;;;25.80;16.73;;;;;;;;;;5029535;28;20064;-64
2022/06/05 05:12:35;;;;;;;33.97;17.77;;;;;;;;;;5028426;28;20424;-65
2022/06/05 05:15:01;;;;;;;24.55;17.02;;;;;;;;;;5028104;28;20048;-65
2022/06/05 05:17:27;;;;;;;26.85;17.40;;;;;;;;;;5028953;28;20039;-65
2022/06/05 05:19:55;;;;;;;30.08;17.83;;;;;;;;;;5029227;28;20391;-66
2022/06/05 05:22:21;;;;;;;27.38;17.35;;;;;;;;;;5029771;28;20041;-65
2022/06/05 05:24:48;;;;;;;28.13;17.33;;;;;;;;;;5029779;28;20025;-66
2022/06/05 05:27:14;;;;;;;24.10;16.33;;;;;;;;;;5029069;28;20056;-66
2022/06/05 05:29:40;;;;;;;25.95;17.40;;;;;;;;;;5029558;28;20060;-66
2022/06/05 05:32:08;;;;;;;30.33;17.73;;;;;;;;;;5044630;28;20028;-67
2022/06/05 05:34:34;;;;;;;31.17;19.13;;;;;;;;;;5029599;28;20045;-66
2022/06/05 05:37:00;;;;;;;29.40;18.33;;;;;;;;;;5030430;28;20033;-66
2022/06/05 05:42:11;;;;;;;30.08;19.30;;;;;;;;;;5033940;28;20124;-67
2022/06/05 05:44:42;;;;;;;26.70;17.35;;;;;;;;;;5032927;28;20058;-66
2022/06/05 05:47:11;;;;;;;33.08;18.30;;;;;;;;;;5033411;28;20038;-66
2022/06/05 05:49:38;;;;;;;28.38;17.55;;;;;;;;;;5032837;28;20033;-65
2022/06/05 05:52:04;;;;;;;37.40;20.63;;;;;;;;;;5033644;28;20108;-66
2022/06/05 05:54:30;;;;;;;28.80;19.83;;;;;;;;;;5033152;28;20026;-66
2022/06/05 05:56:56;;;;;;;30.77;19.15;;;;;;;;;;5033133;28;20045;-66
2022/06/05 05:59:22;;;;;;;27.08;18.50;;;;;;;;;;5033770;28;20046;-66
2022/06/05 06:01:48;;;;;;;27.35;18.98;;;;;;;;;;5032279;28;20390;-65
2022/06/05 06:04:14;;;;;;;30.90;19.15;;;;;;;;;;5048854;28;20033;-65
2022/06/05 06:06:42;;;;;;;29.25;18.13;;;;;;;;;;5032816;28;20506;-65
2022/06/05 06:09:10;;;;;;;28.63;17.88;;;;;;;;;;5033724;28;20087;-65
2022/06/05 06:11:36;;;;;;;31.52;18.48;;;;;;;;;;5033209;28;20113;-65
2022/06/05 06:14:03;;;;;;;25.63;17.92;;;;;;;;;;5033482;28;20462;-65
2022/06/05 06:16:29;;;;;;;26.83;17.52;;;;;;;;;;5032308;28;20475;-67
2022/06/05 06:18:55;;;;;;;28.88;17.65;;;;;;;;;;5033094;28;20025;-64
2022/06/05 06:21:22;;;;;;;29.95;18.27;;;;;;;;;;5033004;28;20028;-64
2022/06/05 06:23:48;;;;;;;27.48;19.15;;;;;;;;;;5032886;28;20026;-64
2022/06/05 06:26:14;;;;;;;29.77;18.48;;;;;;;;;;5032215;28;20413;-65
2022/06/05 06:28:40;;;;;;;25.88;18.17;;;;;;;;;;5030747;28;20431;-65
2022/06/05 06:31:11;;;;;;;26.17;17.20;;;;;;;;;;5032592;28;20108;-64
2022/06/05 06:33:37;;;;;;;25.88;18.10;;;;;;;;;;5031016;28;20103;-65
2022/06/05 06:36:04;;;;;;;25.75;17.17;;;;;;;;;;5032145;28;20080;-65
2022/06/05 06:38:31;;;;;;;24.40;17.33;;;;;;;;;;5032252;28;20033;-65
2022/06/05 06:41:05;;;;;;;29.10;16.73;;;;;;;;;;5032153;28;20024;-65
2022/06/05 06:43:31;;;;;;;23.88;16.50;;;;;;;;;;5030600;28;20025;-65
2022/06/05 06:45:58;;;;;;;25.45;16.55;;;;;;;;;;5031875;28;20039;-64
2022/06/05 06:48:25;;;;;;;27.13;17.38;;;;;;;;;;5031795;28;20091;-65
2022/06/05 06:50:52;;;;;;;25.23;16.75;;;;;;;;;;5030356;28;20501;-65
2022/06/05 06:53:18;;;;;;;23.30;16.08;;;;;;;;;;5032073;28;20065;-65
2022/06/05 06:55:44;;;;;;;21.00;16.45;;;;;;;;;;5031721;28;20066;-65
2022/06/05 06:58:10;;;;;;;24.02;16.38;;;;;;;;;;5032207;28;20045;-66
2022/06/05 07:00:36;;;;;;;27.08;16.27;;;;;;;;;;5031466;28;20494;-65
2022/06/05 07:03:02;;;;;;;31.60;16.75;;;;;;;;;;5030386;28;20536;-66
2022/06/05 07:05:28;;;;;;;22.27;15.88;;;;;;;;;;5031643;28;20042;-66
2022/06/05 07:07:54;;;;;;;26.15;15.75;;;;;;;;;;5031652;28;20080;-65
2022/06/05 07:10:20;;;;;;;24.35;15.73;;;;;;;;;;5031865;28;20103;-66
2022/06/05 07:12:47;;;;;;;21.48;15.43;;;;;;;;;;5031623;28;20021;-66
2022/06/05 07:15:14;;;;;;;20.33;15.43;;;;;;;;;;5031399;28;20553;-66
2022/06/05 07:17:39;;;;;;;21.58;14.95;;;;;;;;;;5031201;28;20398;-65
2022/06/05 07:20:07;;;;;;;22.50;15.23;;;;;;;;;;5031767;28;20030;-66
2022/06/05 07:22:33;;;;;;;24.35;15.27;;;;;;;;;;5031832;28;20035;-66
2022/06/05 07:24:59;;;;;;;22.10;15.75;;;;;;;;;;5032076;28;20041;-66
2022/06/05 07:27:25;;;;;;;21.33;15.75;;;;;;;;;;5031501;28;20033;-65
2022/06/05 07:29:51;;;;;;;20.75;15.40;;;;;;;;;;5046990;28;20033;-66
2022/06/05 07:32:18;;;;;;;23.33;15.25;;;;;;;;;;5031630;28;20036;-65
2022/06/05 07:34:44;;;;;;;22.25;14.20;;;;;;;;;;5031292;28;20029;-66
2022/06/05 07:37:10;;;;;;;21.30;14.27;;;;;;;;;;5031178;28;20163;-66
2022/06/05 07:39:36;;;;;;;21.70;14.43;;;;;;;;;;5031476;28;20060;-66
2022/06/05 07:42:02;;;;;;;18.55;13.63;;;;;;;;;;5031644;28;20026;-65
2022/06/05 07:44:28;;;;;;;19.88;12.98;;;;;;;;;;5030783;28;20053;-65
2022/06/05 07:46:54;;;;;;;19.92;13.15;;;;;;;;;;5031068;28;20116;-65
2022/06/05 07:49:20;;;;;;;20.05;13.10;;;;;;;;;;5030658;28;20025;-65
2022/06/05 07:54:31;;;;;;;18.20;13.07;;;;;;;;;;5030597;28;20055;-64
2022/06/05 07:57:03;;;;;;;19.27;12.73;;;;;;;;;;5030125;28;20059;-64
2022/06/05 07:59:31;;;;;;;20.13;13.30;;;;;;;;;;5029493;28;20505;-64
2022/06/05 08:01:58;;;;;;;17.63;11.85;;;;;;;;;;5030146;28;20104;-64
2022/06/05 08:04:25;;;;;;;20.40;11.63;;;;;;;;;;5030790;28;20058;-65
2022/06/05 08:06:51;;;;;;;14.90;12.00;;;;;;;;;;5030427;28;20037;-65
2022/06/05 08:09:17;;;;;;;14.95;11.52;;;;;;;;;;5030436;28;20029;-65
2022/06/05 08:11:45;;;;;;;17.17;11.95;;;;;;;;;;5030337;28;20046;-65
2022/06/05 08:14:11;;;;;;;15.45;11.13;;;;;;;;;;5030956;28;20060;-65
2022/06/05 08:16:39;;;;;;;17.45;11.98;;;;;;;;;;5030057;28;20036;-66
2022/06/05 08:19:06;;;;;;;18.95;11.75;;;;;;;;;;5030533;28;20029;-65
2022/06/05 08:21:32;;;;;;;15.93;11.60;;;;;;;;;;5030382;28;20049;-65
2022/06/05 08:23:58;;;;;;;17.80;11.23;;;;;;;;;;5030412;28;20025;-65
2022/06/05 08:26:24;;;;;;;15.65;11.43;;;;;;;;;;5030265;28;20041;-64
2022/06/05 08:28:50;;;;;;;18.23;12.02;;;;;;;;;;5028758;28;20121;-64
2022/06/05 08:31:16;;;;;;;16.98;11.25;;;;;;;;;;5029951;28;20037;-65
2022/06/05 08:33:42;;;;;;;13.80;11.73;;;;;;;;;;5030466;28;20119;-67
2022/06/05 08:36:08;;;;;;;15.05;10.95;;;;;;;;;;5045213;28;20060;-67
2022/06/05 08:41:28;;;;;;;13.27;10.35;;;;;;;;;;5030416;28;20103;-68
2022/06/05 08:44:12;;;;;;;13.30;9.50;;;;;;;;;;5029737;28;20049;-68
2022/06/05 08:46:56;;;;;;;17.23;10.65;;;;;;;;;;5029727;28;20073;-68
2022/06/05 08:49:42;;;;;;;14.48;10.60;;;;;;;;;;5030466;28;20099;-68
2022/06/05 08:52:14;;;;;;;16.23;10.02;;;;;;;;;;5030239;28;20024;-68
2022/06/05 08:54:44;;;;;;;13.10;10.13;;;;;;;;;;5029033;28;20029;-68
2022/06/05 08:57:13;;;;;;;12.77;10.52;;;;;;;;;;5030398;28;20040;-69
2022/06/05 09:00:02;;;;;;;12.98;10.27;;;;;;;;;;5030294;28;20095;-67
2022/06/05 09:02:37;;;;;;;14.93;10.20;;;;;;;;;;5030095;28;20021;-67
2022/06/05 09:05:08;;;;;;;14.20;9.65;;;;;;;;;;5030701;28;20030;-67
2022/06/05 09:07:49;;;;;;;13.93;10.10;;;;;;;;;;5030479;28;20420;-68
2022/06/05 09:10:20;;;;;;;11.85;9.77;;;;;;;;;;5030344;28;20148;-67
2022/06/05 09:12:46;;;;;;;15.88;10.48;;;;;;;;;;5030111;28;20029;-69
2022/06/05 09:15:32;;;;;;;15.95;10.60;;;;;;;;;;5030067;28;20074;-68
2022/06/05 09:17:59;;;;;;;13.95;11.27;;;;;;;;;;5029506;28;20052;-68
2022/06/05 09:20:40;;;;;;;15.23;10.93;;;;;;;;;;5030041;28;20025;-68
2022/06/05 09:23:10;;;;;;;13.10;10.68;;;;;;;;;;5029442;28;20030;-69
2022/06/05 09:25:43;;;;;;;12.43;10.40;;;;;;;;;;5029344;28;20029;-68
2022/06/05 09:28:25;;;;;;;14.18;10.90;;;;;;;;;;5029279;28;20065;-68
2022/06/05 09:31:03;;;;;;;13.90;10.75;;;;;;;;;;5029539;28;20452;-68
2022/06/05 09:33:31;;;;;;;12.85;10.88;;;;;;;;;;5027640;28;20090;-68
2022/06/05 09:35:59;;;;;;;15.05;11.13;;;;;;;;;;5027644;28;20033;-67
2022/06/05 09:38:30;;;;;;;15.23;11.48;;;;;;;;;;5028987;28;20036;-68
2022/06/05 09:41:14;;;;;;;19.30;11.63;;;;;;;;;;5029292;28;20034;-68
2022/06/05 09:43:50;;;;;;;18.45;11.88;;;;;;;;;;5027953;28;20025;-67
2022/06/05 09:46:16;;;;;;;14.43;11.75;;;;;;;;;;5030635;28;20554;-67
2022/06/05 09:48:51;;;;;;;14.95;11.20;;;;;;;;;;5047548;28;20112;-67
2022/06/05 09:51:18;;;;;;;14.32;12.50;;;;;;;;;;5045879;28;20032;-69
2022/06/05 09:54:13;;;;;;;17.45;11.18;;;;;;;;;;5027962;28;20037;-68
2022/06/05 09:59:35;;;;;;;15.75;10.35;;;;;;;;;;5048685;28;20371;-68
2022/06/05 10:02:03;;;;;;;13.93;10.57;;;;;;;;;;5049890;28;20494;-67
2022/06/05 10:04:31;;;;;;;15.48;9.85;;;;;;;;;;5049493;28;20087;-68
2022/06/05 10:07:03;;;;;;;12.13;9.48;;;;;;;;;;5049628;28;20398;-69
2022/06/05 10:09:30;;;;;;;16.77;10.02;;;;;;;;;;5049752;28;20025;-69
2022/06/05 10:11:57;;;;;;;15.88;9.25;;;;;;;;;;5049715;28;20033;-69
2022/06/05 10:14:38;;;;;;;18.88;9.30;;;;;;;;;;5049636;28;20516;-69
2022/06/05 10:17:13;;;;;;;11.95;9.38;;;;;;;;;;5049596;28;20120;-69
2022/06/05 10:19:54;;;;;;;16.33;9.48;;;;;;;;;;5049302;28;20032;-69
2022/06/05 10:22:28;;;;;;;12.70;9.70;;;;;;;;;;5049985;28;20047;-69
2022/06/05 10:25:13;;;;;;;10.73;8.70;;;;;;;;;;5053230;28;20032;-69
2022/06/05 10:27:46;;;;;;;14.45;9.00;;;;;;;;;;5049060;28;20029;-69
2022/06/05 10:30:15;;;;;;;13.65;9.10;;;;;;;;;;5013164;28;20048;-68
2022/06/05 10:32:57;;;;;;;11.85;9.55;;;;;;;;;;5013018;28;20026;-69
2022/06/05 10:35:30;;;;;;;11.48;9.90;;;;;;;;;;5012750;28;20112;-68
2022/06/05 10:37:59;;;;;;;12.88;9.45;;;;;;;;;;5029770;28;20025;-68
2022/06/05 10:40:31;;;;;;;12.52;9.35;;;;;;;;;;5052365;28;20071;-69
2022/06/05 10:43:01;;;;;;;11.90;10.10;;;;;;;;;;5052352;28;20053;-68
2022/06/05 10:45:30;;;;;;;12.20;9.50;;;;;;;;;;5052193;28;20067;-68
2022/06/05 10:47:56;;;;;;;11.68;9.43;;;;;;;;;;5051866;28;20040;-69
2022/06/05 10:50:45;;;;;;;13.77;9.80;;;;;;;;;;5052216;28;20025;-69
2022/06/05 10:53:14;;;;;;;12.80;8.75;;;;;;;;;;5051973;28;20021;-69
2022/06/05 10:55:50;;;;;;;11.48;9.50;;;;;;;;;;5052198;28;20025;-69
2022/06/05 10:58:21;;;;;;;12.13;9.48;;;;;;;;;;5052146;28;20072;-69
2022/06/05 11:00:50;;;;;;;11.90;9.68;;;;;;;;;;5051837;28;20020;-67
2022/06/05 11:03:35;;;;;;;13.70;9.57;;;;;;;;;;5051597;28;20025;-67
2022/06/05 11:06:21;;;;;;;11.65;9.43;;;;;;;;;;5050609;28;20054;-68
2022/06/05 11:08:53;;;;;;;11.18;9.43;;;;;;;;;;5051882;28;20407;-69
2022/06/05 11:14:16;;;;;;;15.57;9.82;;;;;;;;;;5052799;28;20051;-69
2022/06/05 11:16:48;;;;;;;16.25;10.40;;;;;;;;;;5051871;28;20108;-69
2022/06/05 11:19:24;;;;;;;12.00;9.90;;;;;;;;;;5052051;28;20029;-69
2022/06/05 11:21:51;;;;;;;17.25;9.88;;;;;;;;;;5052394;28;20025;-69
2022/06/05 11:24:21;;;;;;;11.63;9.88;;;;;;;;;;5052088;28;20028;-69
2022/06/05 11:26:59;;;;;;;11.48;10.30;;;;;;;;;;5052339;28;20025;-69
2022/06/05 11:29:28;;;;;;;16.00;12.05;;;;;;;;;;5019132;28;20029;-69
2022/06/05 11:32:03;;;;;;;17.65;11.35;;;;;;;;;;5012379;28;20030;-68
2022/06/05 11:34:32;;;;;;;16.98;10.90;;;;;;;;;;5010963;28;20033;-69
2022/06/05 11:37:11;;;;;;;16.13;9.93;;;;;;;;;;5012812;28;20113;-69
2022/06/05 11:39:45;;;;;;;12.10;10.75;;;;;;;;;;5012078;28;20036;-67
2022/06/05 11:42:17;;;;;;;13.95;9.60;;;;;;;;;;5012092;28;20380;-69
2022/06/05 11:44:47;;;;;;;11.43;10.20;;;;;;;;;;5011821;28;20049;-68
2022/06/05 11:47:26;;;;;;;14.27;10.45;;;;;;;;;;5011957;28;20544;-69
2022/06/05 11:49:54;;;;;;;17.67;11.05;;;;;;;;;;5011622;28;20026;-68
2022/06/05 11:52:25;;;;;;;14.35;10.15;;;;;;;;;;5011363;28;20041;-69
2022/06/05 11:54:58;;;;;;;14.52;10.60;;;;;;;;;;5011440;28;20029;-68
2022/06/05 11:57:43;;;;;;;11.95;10.32;;;;;;;;;;5011181;28;20061;-68
2022/06/05 12:00:18;;;;;;;12.63;10.77;;;;;;;;;;5011575;28;20030;-69
2022/06/05 12:02:48;;;;;;;14.18;10.32;;;;;;;;;;5011380;28;20065;-69
2022/06/05 12:05:17;;;;;;;11.83;10.67;;;;;;;;;;5011248;28;20026;-68
2022/06/05 12:07:44;;;;;;;12.30;10.13;;;;;;;;;;5011331;28;20017;-68
2022/06/05 12:10:19;;;;;;;12.52;10.43;;;;;;;;;;5011065;28;20033;-67
2022/06/05 12:12:48;;;;;;;15.35;10.95;;;;;;;;;;5011022;28;20022;-69
2022/06/05 12:15:23;;;;;;;17.45;12.07;;;;;;;;;;5011056;28;20112;-68
2022/06/05 12:17:51;;;;;;;14.70;11.73;;;;;;;;;;5011277;28;20065;-67
2022/06/05 12:20:17;;;;;;;17.73;12.00;;;;;;;;;;5011708;28;20032;-68
2022/06/05 12:22:51;;;;;;;16.05;12.10;;;;;;;;;;5027928;28;20021;-67
2022/06/05 12:25:36;;;;;;;14.95;12.45;;;;;;;;;;5050524;28;20055;-67
2022/06/05 12:28:03;;;;;;;18.42;11.73;;;;;;;;;;5040663;28;20097;-68
2022/06/05 12:30:34;;;;;;;21.67;14.07;;;;;;;;;;5010737;28;20022;-68
2022/06/05 12:33:05;;;;;;;19.45;13.30;;;;;;;;;;5010353;28;20104;-69
2022/06/05 12:35:34;;;;;;;17.58;12.90;;;;;;;;;;5010535;28;20478;-69
2022/06/05 12:38:18;;;;;;;16.08;13.63;;;;;;;;;;5010499;28;20060;-68
2022/06/05 12:40:50;;;;;;;16.50;12.73;;;;;;;;;;5010715;28;20232;-67
2022/06/05 12:43:26;;;;;;;14.98;13.35;;;;;;;;;;5010684;28;20058;-69
2022/06/05 12:45:56;;;;;;;16.40;12.95;;;;;;;;;;5010542;28;20538;-69
2022/06/05 12:48:28;;;;;;;14.25;12.45;;;;;;;;;;5009739;28;20033;-68
2022/06/05 12:51:06;;;;;;;14.50;13.02;;;;;;;;;;5011144;28;20396;-69
2022/06/05 12:53:36;;;;;;;14.07;12.32;;;;;;;;;;5010821;28;20243;-69
2022/06/05 12:56:20;;;;;;;14.48;12.90;;;;;;;;;;5010841;28;20563;-68
2022/06/05 12:59:05;;;;;;;14.30;12.65;;;;;;;;;;5010885;28;20483;-69
2022/06/05 13:01:31;;;;;;;14.98;12.85;;;;;;;;;;5009506;28;20025;-67
2022/06/05 13:04:05;;;;;;;13.73;12.40;;;;;;;;;;5010988;28;20495;-68
2022/06/05 13:06:44;;;;;;;12.45;11.10;;;;;;;;;;5010187;28;20045;-69
2022/06/05 13:09:18;;;;;;;14.45;12.43;;;;;;;;;;5010068;28;20033;-69
2022/06/05 13:11:47;;;;;;;18.63;13.82;;;;;;;;;;5010192;28;20033;-69
2022/06/05 13:14:26;;;;;;;17.50;12.10;;;;;;;;;;5009981;28;20625;-67
2022/06/05 13:16:54;;;;;;;13.73;11.90;;;;;;;;;;5009836;28;20055;-70
2022/06/05 13:19:28;;;;;;;16.48;12.52;;;;;;;;;;5010343;28;20033;-69
2022/06/05 13:22:13;;;;;;;13.60;11.95;;;;;;;;;;5010315;28;20068;-68
2022/06/05 13:24:51;;;;;;;14.98;13.27;;;;;;;;;;5009872;28;20064;-69
2022/06/05 13:27:20;;;;;;;15.18;13.00;;;;;;;;;;5010032;28;20025;-68
2022/06/05 13:29:46;;;;;;;14.73;13.30;;;;;;;;;;5028807;28;20033;-68
2022/06/05 13:32:28;;;;;;;18.90;13.88;;;;;;;;;;5029891;28;20102;-68
2022/06/05 13:34:56;;;;;;;17.92;14.88;;;;;;;;;;5029507;28;20128;-68
2022/06/05 13:37:22;;;;;;;16.73;14.93;;;;;;;;;;5029436;28;20025;-68
2022/06/05 13:39:54;;;;;;;23.98;17.42;;;;;;;;;;5028942;28;20261;-69
2022/06/05 13:42:22;;;;;;;20.98;17.15;;;;;;;;;;5029448;28;20026;-68
2022/06/05 13:44:53;;;;;;;27.60;17.75;;;;;;;;;;5029004;28;20049;-68
2022/06/05 13:47:25;;;;;;;21.85;17.10;;;;;;;;;;5029606;28;20026;-68
2022/06/05 13:49:58;;;;;;;21.25;18.10;;;;;;;;;;5029271;28;20052;-69
2022/06/05 13:52:24;;;;;;;23.50;17.40;;;;;;;;;;5029652;28;20131;-68
2022/06/05 13:54:54;;;;;;;20.15;17.95;;;;;;;;;;5029534;28;20153;-68
2022/06/05 13:57:20;;;;;;;22.63;20.23;;;;;;;;;;5030076;28;20498;-68
2022/06/05 13:59:46;;;;;;;23.33;20.75;;;;;;;;;;5033868;28;20189;-68
2022/06/05 14:02:27;;;;;;;29.48;22.27;;;;;;;;;;5034156;28;20383;-69
2022/06/05 14:04:53;;;;;;;;;;;;;;;;;;5034183;28;20096;-69
2022/06/05 14:07:20;;;;;;;25.60;20.63;;;;;;;;;;5034102;28;19905;-68
2022/06/05 14:09:48;;;;;;;26.15;22.77;;;;;;;;;;5033594;28;20471;-68
2022/06/05 14:12:22;;;;;;;27.20;22.45;;;;;;;;;;5033841;28;20021;-68
2022/06/05 14:14:48;;;;;;;29.60;24.42;;;;;;;;;;5033240;28;20025;-68
2022/06/05 14:17:22;;;;;;;26.58;23.67;;;;;;;;;;5033470;28;20051;-67
2022/06/05 14:19:52;;;;;;;30.83;26.08;;;;;;;;;;5032968;28;20021;-68
2022/06/05 14:22:21;;;;;;;29.88;26.55;;;;;;;;;;5033141;28;20479;-68
2022/06/05 14:24:47;;;;;;;28.55;25.65;;;;;;;;;;5031492;28;20458;-68
2022/06/05 14:27:25;;;;;;;28.60;25.52;;;;;;;;;;5032910;28;20120;-68
2022/06/05 14:29:51;;;;;;;31.45;26.00;;;;;;;;;;5032610;28;20398;-68
2022/06/05 14:32:26;;;;;;;31.88;27.95;;;;;;;;;;5033126;28;20128;-67
2022/06/05 14:35:15;;;;;;;32.35;28.95;;;;;;;;;;5032304;28;20064;-67
2022/06/05 14:37:55;;;;;;;38.55;30.27;;;;;;;;;;5032468;28;20542;-67
2022/06/05 14:40:22;;;;;;;37.45;32.58;;;;;;;;;;5032394;28;20061;-68
2022/06/05 14:43:05;;;;;;;43.03;34.40;;;;;;;;;;5047204;28;20056;-67
2022/06/05 14:45:40;;;;;;;42.55;35.00;;;;;;;;;;5032110;28;20053;-67
2022/06/05 14:48:15;;;;;;;47.08;37.72;;;;;;;;;;5032455;28;20075;-67
2022/06/05 14:51:02;;;;;;;45.75;38.42;;;;;;;;;;5031862;28;20029;-68
2022/06/05 14:53:31;;;;;;;42.83;36.60;;;;;;;;;;5011076;28;20037;-68